Terminal Aerodrome Forecast
Issued by NWS Sterling, VA

Current Version | Previous Version | Text Only | Print | Product List | Glossary Off
Versions: 1 2 3 4 5 6 7 8 9 10 11 12 13 14 15 16 17 18 19 20

816
FTUS41 KLWX 272339
TAFMRB
TAF
KMRB 272339Z 2800/2824 18010KT P6SM BKN070
      TEMPO 2801/2803 5SM -SHRA OVC050
     FM280300 20006KT P6SM OVC060
     FM280600 VRB03KT P6SM SCT060
     FM282000 17007KT P6SM SCT250=

USA.gov is the U.S. government's official web portal to all federal, state and local government web resources and services.